Time;durP1;ratioP1;P1;durP2;ratioP2;P2;SDS_P1;SDS_P2;PMS_P1;PMS_P2;Temp;Humidity;BMP_temperature;BMP_pressure;BME280_temperature;BME280_humidity;BME280_pressure;Samples;Min_cycle;Max_cycle;Signal;HPM_P1;HPM_P2
2022/05/14 00:00:35;;;;;;;7.13;4.80;;;;;;;;;;2089408;28;20171;-52
2022/05/14 00:01:36;;;;;;;5.80;4.85;;;;;;;;;;2098889;28;20265;-50
2022/05/14 00:02:37;;;;;;;6.30;4.30;;;;;;;;;;2090679;28;20171;-50
2022/05/14 00:03:39;;;;;;;9.23;5.18;;;;;;;;;;2099348;28;20182;-50
2022/05/14 00:04:40;;;;;;;7.18;4.45;;;;;;;;;;2098678;28;20171;-52
2022/05/14 00:05:42;;;;;;;10.50;4.88;;;;;;;;;;2091312;28;20271;-52
2022/05/14 00:06:42;;;;;;;6.78;5.28;;;;;;;;;;2091134;28;20187;-51
2022/05/14 00:07:42;;;;;;;6.72;4.65;;;;;;;;;;2090461;28;20218;-52
2022/05/14 00:08:42;;;;;;;9.07;4.88;;;;;;;;;;2090351;28;20315;-50
2022/05/14 00:09:43;;;;;;;8.40;4.78;;;;;;;;;;2091556;28;20398;-50
2022/05/14 00:13:21;;;;;;;9.18;4.90;;;;;;;;;;2091072;28;20206;-52
2022/05/14 00:14:21;;;;;;;6.95;4.53;;;;;;;;;;2090704;28;20199;-51
2022/05/14 00:15:22;;;;;;;7.25;4.55;;;;;;;;;;2091296;28;20182;-50
2022/05/14 00:16:23;;;;;;;7.63;5.10;;;;;;;;;;2091365;28;20176;-53
2022/05/14 00:17:24;;;;;;;6.88;5.00;;;;;;;;;;2091356;28;20179;-48
2022/05/14 00:18:24;;;;;;;5.88;3.92;;;;;;;;;;2095802;28;20167;-49
2022/05/14 00:19:25;;;;;;;6.97;5.18;;;;;;;;;;2099234;28;20213;-48
2022/05/14 00:20:25;;;;;;;9.05;4.57;;;;;;;;;;2093587;28;20164;-52
2022/05/14 00:21:26;;;;;;;10.52;4.97;;;;;;;;;;2099445;28;20190;-50
2022/05/14 00:22:26;;;;;;;9.68;4.40;;;;;;;;;;2100877;28;20159;-52
2022/05/14 00:23:27;;;;;;;8.27;4.55;;;;;;;;;;2098350;28;20159;-48
2022/05/14 00:24:27;;;;;;;10.65;4.78;;;;;;;;;;2091989;28;20660;-50
2022/05/14 00:25:28;;;;;;;6.38;5.22;;;;;;;;;;2091694;28;20229;-52
2022/05/14 00:26:28;;;;;;;5.20;4.55;;;;;;;;;;2083223;28;20204;-47
2022/05/14 00:27:28;;;;;;;8.35;4.80;;;;;;;;;;2091648;28;20374;-49
2022/05/14 00:28:29;;;;;;;6.85;4.70;;;;;;;;;;2092212;28;20168;-52
2022/05/14 00:29:30;;;;;;;4.93;4.50;;;;;;;;;;2091436;28;20191;-52
2022/05/14 00:30:31;;;;;;;10.00;4.93;;;;;;;;;;2091989;28;20160;-50
2022/05/14 00:31:32;;;;;;;8.57;4.85;;;;;;;;;;2091184;28;20183;-55
2022/05/14 00:32:32;;;;;;;5.75;3.90;;;;;;;;;;2091329;28;20222;-49
2022/05/14 00:33:32;;;;;;;6.80;4.70;;;;;;;;;;2091970;28;20160;-50
2022/05/14 00:34:32;;;;;;;7.57;4.32;;;;;;;;;;2099581;28;20195;-51
2022/05/14 00:35:33;;;;;;;6.68;5.10;;;;;;;;;;2100136;28;20167;-50
2022/05/14 00:36:34;;;;;;;8.90;4.97;;;;;;;;;;2092309;28;20206;-52
2022/05/14 00:37:34;;;;;;;9.45;5.10;;;;;;;;;;2091081;28;20647;-53
2022/05/14 00:38:35;;;;;;;5.50;4.40;;;;;;;;;;2091357;28;20178;-51
2022/05/14 00:39:35;;;;;;;10.75;4.80;;;;;;;;;;2090734;28;20187;-52
2022/05/14 00:40:38;;;;;;;5.63;4.30;;;;;;;;;;2082324;28;20175;-48
2022/05/14 00:41:39;;;;;;;15.30;5.53;;;;;;;;;;2082541;28;20621;-54
2022/05/14 00:42:40;;;;;;;9.27;4.75;;;;;;;;;;2090755;28;20176;-51
2022/05/14 00:43:51;;;;;;;5.35;4.65;;;;;;;;;;2091359;28;20258;-51
2022/05/14 00:44:52;;;;;;;7.38;4.68;;;;;;;;;;2091021;28;20297;-52
2022/05/14 00:45:54;;;;;;;7.00;4.32;;;;;;;;;;2091073;28;20595;-51
2022/05/14 00:46:54;;;;;;;5.05;4.05;;;;;;;;;;2090386;28;20249;-51
2022/05/14 00:47:56;;;;;;;11.07;4.97;;;;;;;;;;2081704;28;20176;-50
2022/05/14 00:48:58;;;;;;;7.07;5.00;;;;;;;;;;2078497;28;20212;-51
2022/05/14 00:49:59;;;;;;;7.50;4.45;;;;;;;;;;2090267;28;20250;-52
2022/05/14 00:50:59;;;;;;;10.50;4.45;;;;;;;;;;2090878;28;20199;-48
2022/05/14 00:52:00;;;;;;;7.03;4.55;;;;;;;;;;2090979;28;20164;-52
2022/05/14 00:53:03;;;;;;;6.93;4.47;;;;;;;;;;2082089;28;20262;-51
2022/05/14 00:54:07;;;;;;;8.10;4.40;;;;;;;;;;2089950;28;20330;-49
2022/05/14 00:55:08;;;;;;;7.65;4.72;;;;;;;;;;2092048;22;20865;-58
2022/05/14 00:56:10;;;;;;;7.93;4.53;;;;;;;;;;2079819;28;20230;-58
2022/05/14 00:57:12;;;;;;;9.02;4.85;;;;;;;;;;2080297;28;20640;-55
2022/05/14 00:58:24;;;;;;;5.90;4.53;;;;;;;;;;2070375;28;20172;-57
2022/05/14 00:59:25;;;;;;;11.18;4.38;;;;;;;;;;2066891;28;20174;-54
2022/05/14 01:00:25;;;;;;;8.73;4.55;;;;;;;;;;2074076;28;20173;-56
2022/05/14 01:01:26;;;;;;;7.57;4.75;;;;;;;;;;2081636;28;20196;-62
2022/05/14 01:02:28;;;;;;;7.88;4.93;;;;;;;;;;2073885;28;20165;-59
2022/05/14 01:03:29;;;;;;;8.20;4.85;;;;;;;;;;2073569;28;20836;-61
2022/05/14 01:04:30;;;;;;;8.55;5.90;;;;;;;;;;2073076;28;20169;-57
2022/05/14 01:05:31;;;;;;;9.23;4.90;;;;;;;;;;2073776;28;20173;-58
2022/05/14 01:06:33;;;;;;;9.00;4.80;;;;;;;;;;2065339;28;20178;-57
2022/05/14 01:07:36;;;;;;;11.15;5.22;;;;;;;;;;2073777;28;20173;-58
2022/05/14 01:08:36;;;;;;;7.97;5.10;;;;;;;;;;2073831;28;20556;-58
2022/05/14 01:09:37;;;;;;;7.75;5.40;;;;;;;;;;2065400;28;20252;-55
2022/05/14 01:10:40;;;;;;;7.15;5.60;;;;;;;;;;2073494;28;20173;-54
2022/05/14 01:11:40;;;;;;;6.82;5.07;;;;;;;;;;2065906;28;20670;-59
2022/05/14 01:12:46;;;;;;;12.77;5.80;;;;;;;;;;2073321;28;20564;-56
2022/05/14 01:13:46;;;;;;;10.45;5.80;;;;;;;;;;2066162;28;20593;-56
2022/05/14 01:14:47;;;;;;;9.98;5.03;;;;;;;;;;2073428;28;20546;-61
2022/05/14 01:15:52;;;;;;;9.35;4.85;;;;;;;;;;2073731;28;20179;-59
2022/05/14 01:16:55;;;;;;;10.18;4.85;;;;;;;;;;2073825;28;20177;-60
2022/05/14 01:17:56;;;;;;;6.82;4.93;;;;;;;;;;2064934;28;20173;-62
2022/05/14 01:18:57;;;;;;;9.00;4.75;;;;;;;;;;2071323;28;20205;-58
2022/05/14 01:19:57;;;;;;;6.88;4.93;;;;;;;;;;2073637;28;20176;-59
2022/05/14 01:21:13;;;;;;;8.68;4.75;;;;;;;;;;2065673;28;20172;-57
2022/05/14 01:22:53;;;;;;;6.55;4.55;;;;;;;;;;2073736;28;20539;-56
2022/05/14 01:27:16;;;;;;;7.38;4.68;;;;;;;;;;2056765;28;20300;-58
2022/05/14 01:28:16;;;;;;;9.45;4.88;;;;;;;;;;2049031;29;20182;-61
2022/05/14 01:29:19;;;;;;;6.18;4.80;;;;;;;;;;2044544;28;20195;-55
2022/05/14 01:30:21;;;;;;;9.32;5.78;;;;;;;;;;2071101;28;20165;-57
2022/05/14 01:31:21;;;;;;;7.63;4.82;;;;;;;;;;2073466;28;20197;-57
2022/05/14 01:32:21;;;;;;;8.82;5.13;;;;;;;;;;2065614;28;20208;-61
2022/05/14 01:33:22;;;;;;;5.82;5.22;;;;;;;;;;2057537;28;20174;-57
2022/05/14 01:34:24;;;;;;;8.85;5.30;;;;;;;;;;2072650;28;20197;-58
2022/05/14 01:35:25;;;;;;;9.05;5.10;;;;;;;;;;2065568;28;20186;-58
2022/05/14 01:36:25;;;;;;;13.52;5.70;;;;;;;;;;2073484;28;20185;-58
2022/05/14 01:37:25;;;;;;;9.90;5.20;;;;;;;;;;2073574;28;20169;-59
2022/05/14 01:38:26;;;;;;;11.63;5.28;;;;;;;;;;2073305;28;20219;-58
2022/05/14 01:39:27;;;;;;;7.53;5.00;;;;;;;;;;2065217;28;20189;-61
2022/05/14 01:40:28;;;;;;;7.28;5.40;;;;;;;;;;2073452;28;20173;-58
2022/05/14 01:41:28;;;;;;;8.73;5.28;;;;;;;;;;2074055;28;20169;-60
2022/05/14 01:42:28;;;;;;;6.03;4.40;;;;;;;;;;2073248;28;20268;-56
2022/05/14 01:43:29;;;;;;;7.78;5.65;;;;;;;;;;2073658;28;20169;-56
2022/05/14 01:44:29;;;;;;;11.55;5.25;;;;;;;;;;2073046;28;20196;-58
2022/05/14 01:45:31;;;;;;;7.75;5.50;;;;;;;;;;2073487;28;20277;-60
2022/05/14 01:46:31;;;;;;;8.52;5.93;;;;;;;;;;2073375;28;20181;-58
2022/05/14 01:47:35;;;;;;;12.00;5.70;;;;;;;;;;2065054;28;20204;-57
2022/05/14 01:48:35;;;;;;;7.25;5.63;;;;;;;;;;2071797;28;20173;-54
2022/05/14 01:49:36;;;;;;;10.57;5.45;;;;;;;;;;2066953;28;20177;-59
2022/05/14 01:50:36;;;;;;;10.82;6.20;;;;;;;;;;2073200;28;20275;-54
2022/05/14 01:51:36;;;;;;;10.88;6.05;;;;;;;;;;2073400;28;20644;-59
2022/05/14 01:52:40;;;;;;;10.18;5.57;;;;;;;;;;2065812;28;20685;-61
2022/05/14 01:53:40;;;;;;;7.93;5.45;;;;;;;;;;2062634;28;20256;-56
2022/05/14 01:54:41;;;;;;;8.38;5.32;;;;;;;;;;2057287;28;20777;-56
2022/05/14 01:55:41;;;;;;;8.98;5.95;;;;;;;;;;2064886;28;20487;-59
2022/05/14 01:56:42;;;;;;;11.15;5.88;;;;;;;;;;2074108;28;20173;-59
2022/05/14 01:57:42;;;;;;;8.43;5.75;;;;;;;;;;2065947;28;20658;-61
2022/05/14 01:58:43;;;;;;;6.80;5.78;;;;;;;;;;2065645;28;20279;-56
2022/05/14 01:59:48;;;;;;;10.23;5.50;;;;;;;;;;2070016;28;20173;-60
2022/05/14 02:00:49;;;;;;;10.82;5.90;;;;;;;;;;2073912;28;20268;-58
2022/05/14 02:01:49;;;;;;;6.85;5.03;;;;;;;;;;2074143;28;20193;-59
2022/05/14 02:02:50;;;;;;;8.50;5.75;;;;;;;;;;2065338;28;20176;-58
2022/05/14 02:03:55;;;;;;;16.60;5.97;;;;;;;;;;2073140;28;20525;-57
2022/05/14 02:04:56;;;;;;;9.95;6.68;;;;;;;;;;2062218;28;20251;-59
2022/05/14 02:05:56;;;;;;;10.45;6.00;;;;;;;;;;2065041;28;20181;-59
2022/05/14 02:06:57;;;;;;;8.65;5.93;;;;;;;;;;2064749;28;20173;-56
2022/05/14 02:07:57;;;;;;;12.93;5.82;;;;;;;;;;2065679;28;20244;-59
2022/05/14 02:08:59;;;;;;;11.85;5.40;;;;;;;;;;2074525;28;20173;-59
2022/05/14 02:09:59;;;;;;;5.93;5.03;;;;;;;;;;2066849;28;20174;-60
2022/05/14 02:11:00;;;;;;;7.88;5.63;;;;;;;;;;2066207;28;20205;-60
2022/05/14 02:12:01;;;;;;;6.78;6.18;;;;;;;;;;2065974;28;20201;-60
2022/05/14 02:13:06;;;;;;;9.02;5.50;;;;;;;;;;2066850;28;20252;-59
2022/05/14 02:14:06;;;;;;;7.72;6.00;;;;;;;;;;2073834;28;20169;-58
2022/05/14 02:15:07;;;;;;;10.80;5.85;;;;;;;;;;2081217;28;20188;-58
2022/05/14 02:16:08;;;;;;;9.93;5.80;;;;;;;;;;2064943;28;20182;-58
2022/05/14 02:17:09;;;;;;;7.22;5.63;;;;;;;;;;2064709;28;20654;-55
2022/05/14 02:18:09;;;;;;;10.77;5.80;;;;;;;;;;2064501;28;20181;-57
2022/05/14 02:19:10;;;;;;;11.45;6.50;;;;;;;;;;2064923;28;20220;-57
2022/05/14 02:20:10;;;;;;;8.52;5.93;;;;;;;;;;2063844;28;20229;-59
2022/05/14 02:21:12;;;;;;;11.95;6.00;;;;;;;;;;2072979;28;20259;-57
2022/05/14 02:22:13;;;;;;;9.90;6.22;;;;;;;;;;2070712;28;20173;-53
2022/05/14 02:23:14;;;;;;;8.32;5.90;;;;;;;;;;2065011;28;20181;-53
2022/05/14 02:24:14;;;;;;;10.15;5.28;;;;;;;;;;2072408;28;20168;-55
2022/05/14 02:25:19;;;;;;;6.85;5.43;;;;;;;;;;2073093;28;20197;-55
2022/05/14 02:26:19;;;;;;;11.48;5.95;;;;;;;;;;2072840;28;20195;-56
2022/05/14 02:27:20;;;;;;;9.90;5.63;;;;;;;;;;2072744;28;20724;-60
2022/05/14 02:28:20;;;;;;;8.80;5.70;;;;;;;;;;2080935;28;20605;-58
2022/05/14 02:29:20;;;;;;;8.02;5.43;;;;;;;;;;2065544;28;20209;-59
2022/05/14 02:30:21;;;;;;;7.22;5.70;;;;;;;;;;2072749;28;20272;-57
2022/05/14 02:31:21;;;;;;;10.00;5.78;;;;;;;;;;2072754;28;20192;-57
2022/05/14 02:32:23;;;;;;;9.88;5.72;;;;;;;;;;2072966;28;20535;-57
2022/05/14 02:33:24;;;;;;;10.63;5.80;;;;;;;;;;2064745;28;20179;-55
2022/05/14 02:34:24;;;;;;;10.20;5.63;;;;;;;;;;2072481;28;20172;-57
2022/05/14 02:35:25;;;;;;;7.97;5.70;;;;;;;;;;2073266;28;20687;-58
2022/05/14 02:36:25;;;;;;;7.28;5.50;;;;;;;;;;2072585;28;20201;-54
2022/05/14 02:37:26;;;;;;;7.18;5.40;;;;;;;;;;2073017;28;20180;-57
2022/05/14 02:38:30;;;;;;;10.68;5.90;;;;;;;;;;2073658;28;20727;-57
2022/05/14 02:39:30;;;;;;;9.90;5.20;;;;;;;;;;2073084;28;20161;-58
2022/05/14 02:40:30;;;;;;;8.35;5.63;;;;;;;;;;2073676;28;20179;-55
2022/05/14 02:41:31;;;;;;;14.38;5.90;;;;;;;;;;2073494;28;20160;-57
2022/05/14 02:42:31;;;;;;;7.20;6.50;;;;;;;;;;2071373;28;20259;-61
2022/05/14 02:43:32;;;;;;;7.03;5.57;;;;;;;;;;2072610;28;20180;-56
2022/05/14 02:44:34;;;;;;;8.25;5.28;;;;;;;;;;2072290;28;20168;-57
2022/05/14 02:45:35;;;;;;;8.38;5.57;;;;;;;;;;2072894;28;20169;-56
2022/05/14 02:46:35;;;;;;;8.82;5.93;;;;;;;;;;2072982;28;20245;-56
2022/05/14 02:47:35;;;;;;;8.77;5.70;;;;;;;;;;2072698;28;20173;-58
2022/05/14 02:48:36;;;;;;;7.75;5.50;;;;;;;;;;2072638;28;20168;-52
2022/05/14 02:49:37;;;;;;;13.90;6.57;;;;;;;;;;2064317;28;20559;-56
2022/05/14 02:50:38;;;;;;;9.60;6.07;;;;;;;;;;2064577;28;20220;-57
2022/05/14 02:51:38;;;;;;;10.43;6.63;;;;;;;;;;2072703;28;20634;-54
2022/05/14 02:52:38;;;;;;;9.40;5.53;;;;;;;;;;2072787;28;20279;-58
2022/05/14 02:53:39;;;;;;;10.93;6.00;;;;;;;;;;2064568;28;20169;-58
2022/05/14 02:54:39;;;;;;;7.60;5.93;;;;;;;;;;2071967;28;20284;-55
2022/05/14 02:55:40;;;;;;;9.50;6.03;;;;;;;;;;2064997;28;20193;-57
2022/05/14 02:56:40;;;;;;;10.30;6.07;;;;;;;;;;2073236;28;20223;-58
2022/05/14 02:57:40;;;;;;;9.40;5.78;;;;;;;;;;2073649;28;20181;-58
2022/05/14 03:00:00;;;;;;;9.57;5.63;;;;;;;;;;2073477;28;20183;-57
2022/05/14 03:01:00;;;;;;;10.52;6.63;;;;;;;;;;2073018;28;20203;-59
2022/05/14 03:02:03;;;;;;;11.82;6.07;;;;;;;;;;2072874;28;20216;-59
2022/05/14 03:03:03;;;;;;;6.88;6.05;;;;;;;;;;2072780;28;20664;-58
2022/05/14 03:04:06;;;;;;;8.98;6.47;;;;;;;;;;2064142;28;20277;-60
2022/05/14 03:05:07;;;;;;;9.05;5.72;;;;;;;;;;2072578;28;20279;-57
2022/05/14 03:06:08;;;;;;;8.70;5.95;;;;;;;;;;2080695;28;20176;-57
2022/05/14 03:07:09;;;;;;;9.90;5.90;;;;;;;;;;2072653;28;20197;-59
2022/05/14 03:08:09;;;;;;;11.05;5.80;;;;;;;;;;2072653;28;20165;-61
2022/05/14 03:09:10;;;;;;;9.20;5.65;;;;;;;;;;2073355;28;20200;-57
2022/05/14 03:10:11;;;;;;;11.77;6.03;;;;;;;;;;2072968;28;20200;-53
2022/05/14 03:11:11;;;;;;;11.63;6.07;;;;;;;;;;2072446;28;20275;-58
2022/05/14 03:12:12;;;;;;;9.77;5.60;;;;;;;;;;2064177;28;20214;-57
2022/05/14 03:13:13;;;;;;;6.47;5.38;;;;;;;;;;2064460;28;20568;-60
2022/05/14 03:14:13;;;;;;;9.40;6.25;;;;;;;;;;2072093;28;20268;-57
2022/05/14 03:15:14;;;;;;;11.27;6.18;;;;;;;;;;2060093;28;20212;-56
2022/05/14 03:16:14;;;;;;;11.27;6.03;;;;;;;;;;2069148;28;20169;-55
2022/05/14 03:17:15;;;;;;;9.57;5.75;;;;;;;;;;2064799;28;20264;-59
2022/05/14 03:18:15;;;;;;;12.15;6.07;;;;;;;;;;2064486;28;20174;-58
2022/05/14 03:19:16;;;;;;;7.60;6.43;;;;;;;;;;2072610;28;20173;-57
2022/05/14 03:20:16;;;;;;;9.20;6.47;;;;;;;;;;2072555;28;20169;-55
2022/05/14 03:21:17;;;;;;;9.68;6.10;;;;;;;;;;2072637;28;20172;-56
2022/05/14 03:22:18;;;;;;;11.65;6.60;;;;;;;;;;2072528;28;20204;-56
2022/05/14 03:23:19;;;;;;;8.38;5.28;;;;;;;;;;2072531;28;20177;-59
2022/05/14 03:24:19;;;;;;;14.90;6.20;;;;;;;;;;2064060;28;20205;-58
2022/05/14 03:25:20;;;;;;;10.68;6.18;;;;;;;;;;2072559;28;20243;-60
2022/05/14 03:26:20;;;;;;;11.38;6.60;;;;;;;;;;2080348;28;20208;-58
2022/05/14 03:27:20;;;;;;;10.60;5.97;;;;;;;;;;2080875;28;20239;-58
2022/05/14 03:28:21;;;;;;;9.80;6.03;;;;;;;;;;2072654;28;20611;-58
2022/05/14 03:29:21;;;;;;;7.80;6.20;;;;;;;;;;2064536;28;20189;-55
2022/05/14 03:30:21;;;;;;;10.15;6.32;;;;;;;;;;2064718;28;20232;-56
2022/05/14 03:31:22;;;;;;;11.60;6.95;;;;;;;;;;2072619;28;20648;-55
2022/05/14 03:32:24;;;;;;;9.07;5.82;;;;;;;;;;2072695;28;20173;-58
2022/05/14 03:33:24;;;;;;;11.13;6.13;;;;;;;;;;2072668;28;20177;-59
2022/05/14 03:34:25;;;;;;;11.63;6.38;;;;;;;;;;2072907;28;20177;-59
2022/05/14 03:35:25;;;;;;;9.15;6.30;;;;;;;;;;2071988;28;20263;-56
2022/05/14 03:36:26;;;;;;;7.95;6.53;;;;;;;;;;2072536;28;20554;-56
2022/05/14 03:37:26;;;;;;;10.55;6.63;;;;;;;;;;2072582;28;20176;-59
2022/05/14 03:38:26;;;;;;;7.22;5.88;;;;;;;;;;2072739;28;20164;-57
2022/05/14 03:39:27;;;;;;;11.43;6.40;;;;;;;;;;2072739;28;20165;-57
2022/05/14 03:40:27;;;;;;;11.05;6.57;;;;;;;;;;2073514;28;20164;-59
2022/05/14 03:41:28;;;;;;;8.50;6.68;;;;;;;;;;2072278;28;20591;-58
2022/05/14 03:42:31;;;;;;;7.93;6.25;;;;;;;;;;2072753;28;20626;-55
2022/05/14 03:43:32;;;;;;;13.35;6.57;;;;;;;;;;2073300;28;20193;-56
2022/05/14 03:44:32;;;;;;;11.60;6.90;;;;;;;;;;2072989;28;20168;-54
2022/05/14 03:45:33;;;;;;;10.45;6.82;;;;;;;;;;2072434;28;20166;-58
2022/05/14 03:46:33;;;;;;;11.20;6.30;;;;;;;;;;2064399;28;20617;-59
2022/05/14 03:47:34;;;;;;;15.80;7.38;;;;;;;;;;2056989;28;20170;-58
2022/05/14 03:48:36;;;;;;;11.93;6.45;;;;;;;;;;2065861;28;20173;-59
2022/05/14 03:49:36;;;;;;;13.07;6.75;;;;;;;;;;2062836;28;20174;-58
2022/05/14 03:50:37;;;;;;;10.30;6.75;;;;;;;;;;2056596;28;20198;-51
2022/05/14 03:51:37;;;;;;;10.25;6.90;;;;;;;;;;2064499;28;20185;-53
2022/05/14 03:52:37;;;;;;;9.80;6.22;;;;;;;;;;2064672;28;20166;-55
2022/05/14 03:53:38;;;;;;;11.43;6.75;;;;;;;;;;2064757;28;20232;-57
2022/05/14 03:54:38;;;;;;;11.23;6.45;;;;;;;;;;2065808;28;20178;-54
2022/05/14 03:55:40;;;;;;;8.32;6.50;;;;;;;;;;2066133;28;20189;-58
2022/05/14 03:56:40;;;;;;;12.20;7.20;;;;;;;;;;2068413;28;20180;-55
2022/05/14 03:57:42;;;;;;;14.90;6.88;;;;;;;;;;2074865;28;20161;-57
2022/05/14 03:58:42;;;;;;;9.50;6.53;;;;;;;;;;2074131;28;20678;-58
2022/05/14 03:59:42;;;;;;;8.32;6.43;;;;;;;;;;2074431;28;20264;-57
2022/05/14 04:00:42;;;;;;;10.38;7.28;;;;;;;;;;2074068;28;20720;-58
2022/05/14 04:01:44;;;;;;;11.70;6.82;;;;;;;;;;2065968;28;20197;-59
2022/05/14 04:02:45;;;;;;;10.55;6.63;;;;;;;;;;2058101;28;20726;-58
2022/05/14 04:03:46;;;;;;;12.40;6.72;;;;;;;;;;2058064;28;20218;-58
2022/05/14 04:04:46;;;;;;;7.68;6.97;;;;;;;;;;2065447;28;20272;-56
2022/05/14 04:05:47;;;;;;;12.07;6.82;;;;;;;;;;2066187;28;20224;-60
2022/05/14 04:06:47;;;;;;;14.05;7.20;;;;;;;;;;2065842;28;20173;-56
2022/05/14 04:07:47;;;;;;;7.82;6.60;;;;;;;;;;2074292;28;20682;-57
2022/05/14 04:08:48;;;;;;;11.40;6.82;;;;;;;;;;2074869;28;20545;-57
2022/05/14 04:09:48;;;;;;;11.63;7.32;;;;;;;;;;2074333;28;20625;-58
2022/05/14 04:10:48;;;;;;;9.57;6.38;;;;;;;;;;2074044;28;20637;-57
2022/05/14 04:11:49;;;;;;;15.65;6.88;;;;;;;;;;2074633;28;20193;-55
2022/05/14 04:12:50;;;;;;;10.43;6.50;;;;;;;;;;2073885;28;20571;-50
2022/05/14 04:13:51;;;;;;;7.60;6.85;;;;;;;;;;2066180;28;20174;-52
2022/05/14 04:14:51;;;;;;;11.52;6.65;;;;;;;;;;2074193;28;20192;-56
2022/05/14 04:15:52;;;;;;;7.00;6.32;;;;;;;;;;2076115;28;20218;-57
2022/05/14 04:16:52;;;;;;;9.43;6.90;;;;;;;;;;2074850;28;20252;-57
2022/05/14 04:17:53;;;;;;;9.00;7.22;;;;;;;;;;2075914;28;20177;-58
2022/05/14 04:18:54;;;;;;;10.52;6.53;;;;;;;;;;2067398;28;20208;-59
2022/05/14 04:19:54;;;;;;;10.50;6.60;;;;;;;;;;2067521;28;20487;-58
2022/05/14 04:20:56;;;;;;;10.77;7.15;;;;;;;;;;2067820;28;20617;-58
2022/05/14 04:21:57;;;;;;;12.82;7.07;;;;;;;;;;2067993;28;20173;-56
2022/05/14 04:22:57;;;;;;;12.50;7.18;;;;;;;;;;2067125;28;20220;-59
2022/05/14 04:23:59;;;;;;;10.27;6.60;;;;;;;;;;2067530;28;20220;-56
2022/05/14 04:24:59;;;;;;;9.63;6.85;;;;;;;;;;2075414;28;20202;-59
2022/05/14 04:26:00;;;;;;;10.95;6.93;;;;;;;;;;2075495;28;20712;-57
2022/05/14 04:27:00;;;;;;;11.90;7.03;;;;;;;;;;2066908;28;20747;-57
2022/05/14 04:28:01;;;;;;;11.68;6.38;;;;;;;;;;2067602;28;20204;-58
2022/05/14 04:29:01;;;;;;;10.25;7.20;;;;;;;;;;2067411;28;20291;-58
2022/05/14 04:30:04;;;;;;;14.55;7.45;;;;;;;;;;2075747;28;20181;-57
2022/05/14 04:31:05;;;;;;;14.00;7.40;;;;;;;;;;2067499;28;20194;-58
2022/05/14 04:32:06;;;;;;;11.48;6.90;;;;;;;;;;2067435;28;20198;-56
2022/05/14 04:33:07;;;;;;;11.68;7.53;;;;;;;;;;2067379;28;20182;-58
2022/05/14 04:34:08;;;;;;;14.10;6.80;;;;;;;;;;2077218;28;20225;-60
2022/05/14 04:35:09;;;;;;;9.57;7.13;;;;;;;;;;2074508;28;20197;-61
2022/05/14 04:36:09;;;;;;;13.63;7.57;;;;;;;;;;2067608;28;20173;-60
2022/05/14 04:37:10;;;;;;;12.90;7.00;;;;;;;;;;2068032;28;20173;-60
2022/05/14 04:38:12;;;;;;;9.57;7.03;;;;;;;;;;2066707;28;20676;-59
2022/05/14 04:39:12;;;;;;;11.50;6.70;;;;;;;;;;2071695;28;20172;-60
2022/05/14 04:40:13;;;;;;;8.40;6.50;;;;;;;;;;2074671;28;20255;-61
2022/05/14 04:41:13;;;;;;;10.02;6.88;;;;;;;;;;2066562;28;20180;-60
2022/05/14 04:42:15;;;;;;;8.45;6.50;;;;;;;;;;2075122;28;20181;-59
2022/05/14 04:43:15;;;;;;;12.98;7.25;;;;;;;;;;2075222;28;20181;-61
2022/05/14 04:44:16;;;;;;;14.70;7.53;;;;;;;;;;2066793;28;20182;-60
2022/05/14 04:45:16;;;;;;;10.75;7.00;;;;;;;;;;2059029;28;20310;-61
2022/05/14 04:46:17;;;;;;;9.75;8.15;;;;;;;;;;2066929;28;20209;-61
2022/05/14 04:47:17;;;;;;;9.15;6.90;;;;;;;;;;2066993;28;20201;-58
2022/05/14 04:48:18;;;;;;;13.27;6.63;;;;;;;;;;2058467;28;20233;-56
2022/05/14 04:49:19;;;;;;;9.10;7.20;;;;;;;;;;2058191;28;20205;-57
2022/05/14 04:50:19;;;;;;;8.93;7.20;;;;;;;;;;2065702;28;20169;-58
2022/05/14 04:51:20;;;;;;;11.05;6.65;;;;;;;;;;2073704;28;20708;-58
2022/05/14 04:52:21;;;;;;;13.68;7.38;;;;;;;;;;2065382;28;20178;-60
2022/05/14 04:53:21;;;;;;;9.65;6.78;;;;;;;;;;2066019;28;20604;-57
2022/05/14 04:54:22;;;;;;;11.02;6.30;;;;;;;;;;2067631;28;20650;-59
2022/05/14 04:55:22;;;;;;;8.77;6.80;;;;;;;;;;2065626;28;20209;-60
2022/05/14 04:56:22;;;;;;;11.93;6.50;;;;;;;;;;2065515;28;20165;-53
2022/05/14 04:57:23;;;;;;;11.90;6.45;;;;;;;;;;2073548;28;20646;-56
2022/05/14 04:58:23;;;;;;;12.45;6.63;;;;;;;;;;2073382;28;20171;-55
2022/05/14 04:59:24;;;;;;;12.15;6.90;;;;;;;;;;2065729;28;20185;-56
2022/05/14 05:00:24;;;;;;;10.27;6.47;;;;;;;;;;2057705;28;20368;-54
2022/05/14 05:01:24;;;;;;;11.90;6.50;;;;;;;;;;2065771;28;20204;-56
2022/05/14 05:03:45;;;;;;;8.85;6.10;;;;;;;;;;2067882;28;20184;-56
2022/05/14 05:04:45;;;;;;;16.35;7.03;;;;;;;;;;2073289;28;20566;-54
2022/05/14 05:05:50;;;;;;;10.30;6.50;;;;;;;;;;2064730;28;20169;-57
2022/05/14 05:06:50;;;;;;;10.27;5.90;;;;;;;;;;2065813;28;20178;-56
2022/05/14 05:07:50;;;;;;;13.23;6.35;;;;;;;;;;2065644;28;20262;-59
2022/05/14 05:08:52;;;;;;;10.60;7.10;;;;;;;;;;2057538;28;20182;-57
2022/05/14 05:09:53;;;;;;;9.20;7.00;;;;;;;;;;2065644;28;20189;-59
2022/05/14 05:10:54;;;;;;;9.40;6.40;;;;;;;;;;2066187;28;20685;-56
2022/05/14 05:11:54;;;;;;;10.73;6.80;;;;;;;;;;2071278;28;20177;-57
2022/05/14 05:12:55;;;;;;;10.38;6.43;;;;;;;;;;2073812;28;20802;-57
2022/05/14 05:13:56;;;;;;;13.85;6.43;;;;;;;;;;2074152;28;20265;-54
2022/05/14 05:14:56;;;;;;;9.93;6.15;;;;;;;;;;2072822;28;20197;-56
2022/05/14 05:15:56;;;;;;;8.73;6.25;;;;;;;;;;2073913;28;20176;-59
2022/05/14 05:16:57;;;;;;;10.75;6.65;;;;;;;;;;2074249;28;20173;-58
2022/05/14 05:17:58;;;;;;;9.68;6.90;;;;;;;;;;2073623;28;20219;-56
2022/05/14 05:18:58;;;;;;;9.13;5.90;;;;;;;;;;2073940;28;20191;-53
2022/05/14 05:19:58;;;;;;;8.68;6.57;;;;;;;;;;2074060;28;20173;-57
2022/05/14 05:20:58;;;;;;;9.20;5.90;;;;;;;;;;2074143;28;20185;-55
2022/05/14 05:21:59;;;;;;;9.65;6.50;;;;;;;;;;2072667;28;20273;-58
2022/05/14 05:22:59;;;;;;;15.38;6.55;;;;;;;;;;2073446;28;20175;-59
2022/05/14 05:24:01;;;;;;;9.75;6.75;;;;;;;;;;2073067;28;20175;-58
2022/05/14 05:25:02;;;;;;;11.77;7.03;;;;;;;;;;2074332;28;20287;-59
2022/05/14 05:26:02;;;;;;;8.25;6.50;;;;;;;;;;2074183;28;20177;-55
2022/05/14 05:27:03;;;;;;;13.40;6.85;;;;;;;;;;2074334;28;20207;-56
2022/05/14 05:28:03;;;;;;;11.18;6.38;;;;;;;;;;2074233;28;20185;-57
2022/05/14 05:29:04;;;;;;;11.35;6.85;;;;;;;;;;2074367;28;20184;-55
2022/05/14 05:30:05;;;;;;;14.68;7.68;;;;;;;;;;2073458;28;20173;-56
2022/05/14 05:31:06;;;;;;;12.23;6.53;;;;;;;;;;2073634;28;20200;-60
2022/05/14 05:32:06;;;;;;;9.73;6.22;;;;;;;;;;2073958;28;20217;-59
2022/05/14 05:33:14;;;;;;;10.93;6.07;;;;;;;;;;2074187;28;20173;-53
2022/05/14 05:34:14;;;;;;;8.63;5.70;;;;;;;;;;2072531;28;20176;-59
2022/05/14 05:35:15;;;;;;;10.10;6.70;;;;;;;;;;2076461;28;20240;-56
2022/05/14 05:36:15;;;;;;;10.57;6.63;;;;;;;;;;2075371;28;20185;-58
2022/05/14 05:37:15;;;;;;;13.95;6.57;;;;;;;;;;2069992;28;20231;-58
2022/05/14 05:38:16;;;;;;;11.52;6.60;;;;;;;;;;2072497;28;20516;-51
2022/05/14 05:39:17;;;;;;;9.77;6.22;;;;;;;;;;2074784;28;20548;-58
2022/05/14 05:40:17;;;;;;;10.02;6.55;;;;;;;;;;2074880;28;20257;-58
2022/05/14 05:41:18;;;;;;;12.30;6.60;;;;;;;;;;2075011;28;20642;-55
2022/05/14 05:42:19;;;;;;;7.75;6.43;;;;;;;;;;2074573;28;20169;-57
2022/05/14 05:43:20;;;;;;;12.02;7.22;;;;;;;;;;2070666;28;20572;-55
2022/05/14 05:44:20;;;;;;;8.90;6.57;;;;;;;;;;2065906;28;20178;-57
2022/05/14 05:45:21;;;;;;;17.20;6.35;;;;;;;;;;2066447;28;20272;-58
2022/05/14 05:46:21;;;;;;;13.35;6.25;;;;;;;;;;2073575;28;20189;-59
2022/05/14 05:47:22;;;;;;;8.40;6.43;;;;;;;;;;2074355;28;20634;-57
2022/05/14 05:48:23;;;;;;;12.75;6.82;;;;;;;;;;2074081;28;20298;-58
2022/05/14 05:49:24;;;;;;;11.43;6.57;;;;;;;;;;2073565;28;20525;-59
2022/05/14 05:50:24;;;;;;;9.85;6.45;;;;;;;;;;2073703;28;20259;-57
2022/05/14 05:51:25;;;;;;;9.25;6.70;;;;;;;;;;2074228;28;20254;-56
2022/05/14 05:52:25;;;;;;;10.77;7.00;;;;;;;;;;2073444;28;20172;-57
2022/05/14 05:56:46;;;;;;;12.73;7.63;;;;;;;;;;2073093;28;20696;-58
2022/05/14 05:57:30;;;;;;;11.25;6.70;;;;;;;;;;2073743;28;20160;-57
2022/05/14 05:58:31;;;;;;;11.68;6.70;;;;;;;;;;2073382;28;20183;-57
2022/05/14 05:59:33;;;;;;;11.65;6.55;;;;;;;;;;2073166;28;20207;-54
2022/05/14 06:00:33;;;;;;;9.05;7.28;;;;;;;;;;2073161;28;20796;-56
2022/05/14 06:01:34;;;;;;;13.35;8.18;;;;;;;;;;2073037;28;20173;-56
2022/05/14 06:02:34;;;;;;;11.77;7.28;;;;;;;;;;2074365;28;20183;-56
2022/05/14 06:03:35;;;;;;;12.38;6.82;;;;;;;;;;2067841;28;20643;-56
2022/05/14 06:04:35;;;;;;;11.38;7.18;;;;;;;;;;2064664;28;20170;-55
2022/05/14 06:05:36;;;;;;;12.50;7.32;;;;;;;;;;2065550;28;20174;-55
2022/05/14 06:06:41;;;;;;;16.27;7.43;;;;;;;;;;2066305;28;20166;-55
2022/05/14 06:07:42;;;;;;;9.07;7.22;;;;;;;;;;2065699;28;20166;-58
2022/05/14 06:08:42;;;;;;;16.80;7.50;;;;;;;;;;2065882;28;20232;-55
2022/05/14 06:09:42;;;;;;;11.68;8.18;;;;;;;;;;2065812;28;20223;-56
2022/05/14 06:10:43;;;;;;;14.65;7.68;;;;;;;;;;2065055;28;20269;-56
2022/05/14 06:11:44;;;;;;;15.50;7.80;;;;;;;;;;2064905;28;20232;-56
2022/05/14 06:12:46;;;;;;;13.68;8.00;;;;;;;;;;2065499;28;20256;-56
2022/05/14 06:13:47;;;;;;;12.27;6.78;;;;;;;;;;2064813;28;20169;-55
2022/05/14 06:14:47;;;;;;;13.23;7.72;;;;;;;;;;2064798;28;20346;-56